Time;durP1;ratioP1;P1;durP2;ratioP2;P2;SDS_P1;SDS_P2;PMS_P1;PMS_P2;Temp;Humidity;BMP_temperature;BMP_pressure;BME280_temperature;BME280_humidity;BME280_pressure;Samples;Min_cycle;Max_cycle;Signal;HPM_P1;HPM_P2
2022/12/05 00:01:12;;;;;;;;;;;;;;;;;;5012576;28;874;-73
2022/12/05 00:03:38;;;;;;;;;;;;;;;;;;5012108;28;1434;-74
2022/12/05 00:06:05;;;;;;;;;;;;;;;;;;5012777;28;1060;-74
2022/12/05 00:08:31;;;;;;;;;;;;;;;;;;5012832;28;1048;-74
2022/12/05 00:10:57;;;;;;;;;;;;;;;;;;5012562;28;750;-74
2022/12/05 00:13:23;;;;;;;;;;;;;;;;;;5011704;28;970;-73
2022/12/05 00:15:51;;;;;;;;;;;;;;;;;;5012311;28;1914;-73
2022/12/05 00:18:17;;;;;;;;;;;;;;;;;;4994790;28;1247;-73
2022/12/05 00:20:44;;;;;;;;;;;;;;;;;;5012442;28;1080;-73
2022/12/05 00:23:10;;;;;;;;;;;;;;;;;;5011551;28;795;-74
2022/12/05 00:25:36;;;;;;;;;;;;;;;;;;5012178;28;1413;-74
2022/12/05 00:28:03;;;;;;;;;;;;;;;;;;5012295;28;1044;-73
2022/12/05 00:30:29;;;;;;;;;;;;;;;;;;5012538;28;878;-74
2022/12/05 00:32:57;;;;;;;;;;;;;;;;;;5011589;28;1104;-73
2022/12/05 00:35:23;;;;;;;;;;;;;;;;;;5012086;28;1910;-74
2022/12/05 00:37:49;;;;;;;;;;;;;;;;;;5012133;28;1108;-73
2022/12/05 00:40:15;;;;;;;;;;;;;;;;;;5011975;28;838;-74
2022/12/05 00:42:42;;;;;;;;;;;;;;;;;;5011608;28;1116;-74
2022/12/05 00:45:08;;;;;;;;;;;;;;;;;;4994241;28;1412;-74
2022/12/05 00:47:35;;;;;;;;;;;;;;;;;;5012104;28;1226;-74
2022/12/05 00:50:02;;;;;;;;;;;;;;;;;;5011807;28;1051;-74
2022/12/05 00:52:29;;;;;;;;;;;;;;;;;;5011363;28;1056;-74
2022/12/05 00:54:55;;;;;;;;;;;;;;;;;;4994036;28;1981;-73
2022/12/05 00:57:21;;;;;;;;;;;;;;;;;;5012090;28;1536;-74
2022/12/05 00:59:47;;;;;;;;;;;;;;;;;;4994932;28;1255;-74
2022/12/05 01:02:13;;;;;;;;;;;;;;;;;;4994643;28;1217;-74
2022/12/05 01:04:40;;;;;;;;;;;;;;;;;;5002440;28;1554;-74
2022/12/05 01:07:07;;;;;;;;;;;;;;;;;;5018726;28;1084;-74
2022/12/05 01:09:33;;;;;;;;;;;;;;;;;;5030263;28;1167;-75
2022/12/05 01:11:59;;;;;;;;;;;;;;;;;;5030805;28;1071;-74
2022/12/05 01:14:26;;;;;;;;;;;;;;;;;;5031334;28;1373;-74
2022/12/05 01:16:53;;;;;;;;;;;;;;;;;;5031234;28;2328;-73
2022/12/05 01:19:21;;;;;;;;;;;;;;;;;;5013815;28;1210;-73
2022/12/05 01:21:47;;;;;;;;;;;;;;;;;;5030570;28;814;-74
2022/12/05 01:24:15;;;;;;;;;;;;;;;;;;5013466;28;1726;-73
2022/12/05 01:26:42;;;;;;;;;;;;;;;;;;5031316;28;945;-73
2022/12/05 01:29:08;;;;;;;;;;;;;;;;;;5031042;28;1153;-73
2022/12/05 01:31:35;;;;;;;;;;;;;;;;;;5030638;28;783;-73
2022/12/05 01:34:02;;;;;;;;;;;;;;;;;;5030819;28;1408;-73
2022/12/05 01:36:28;;;;;;;;;;;;;;;;;;5031177;28;1918;-73
2022/12/05 01:38:54;;;;;;;;;;;;;;;;;;5031112;28;937;-73
2022/12/05 01:41:22;;;;;;;;;;;;;;;;;;5030477;28;1020;-73
2022/12/05 01:43:56;;;;;;;;;;;;;;;;;;5030923;28;1320;-73
2022/12/05 01:46:22;;;;;;;;;;;;;;;;;;5013412;28;1342;-73
2022/12/05 01:48:48;;;;;;;;;;;;;;;;;;5013318;28;1281;-73
2022/12/05 01:51:14;;;;;;;;;;;;;;;;;;4998533;28;1673;-73
2022/12/05 01:53:41;;;;;;;;;;;;;;;;;;5011090;28;1259;-74
2022/12/05 01:56:07;;;;;;;;;;;;;;;;;;5010962;28;1973;-75
2022/12/05 01:58:35;;;;;;;;;;;;;;;;;;5011226;28;1127;-75
2022/12/05 02:01:02;;;;;;;;;;;;;;;;;;5011049;28;830;-73
2022/12/05 02:03:28;;;;;;;;;;;;;;;;;;5010340;28;1183;-74
2022/12/05 02:05:55;;;;;;;;;;;;;;;;;;5011095;28;1354;-73
2022/12/05 02:08:21;;;;;;;;;;;;;;;;;;5011446;28;835;-74
2022/12/05 02:10:48;;;;;;;;;;;;;;;;;;5011379;28;1060;-74
2022/12/05 02:13:18;;;;;;;;;;;;;;;;;;5010608;28;879;-74
2022/12/05 02:15:47;;;;;;;;;;;;;;;;;;4996836;28;1910;-72
2022/12/05 02:18:23;;;;;;;;;;;;;;;;;;5014489;28;774;-74
2022/12/05 02:20:54;;;;;;;;;;;;;;;;;;4997093;28;914;-73
2022/12/05 02:23:38;;;;;;;;;;;;;;;;;;4996432;28;1154;-73
2022/12/05 02:26:23;;;;;;;;;;;;;;;;;;4996825;28;1252;-74
2022/12/05 02:29:00;;;;;;;;;;;;;;;;;;4996477;28;1346;-73
2022/12/05 02:31:29;;;;;;;;;;;;;;;;;;5013908;28;1064;-74
2022/12/05 02:33:57;;;;;;;;;;;;;;;;;;5014476;28;1397;-72
2022/12/05 02:36:24;;;;;;;;;;;;;;;;;;5014321;28;1975;-73
2022/12/05 02:38:52;;;;;;;;;;;;;;;;;;5014208;28;985;-73
2022/12/05 02:41:19;;;;;;;;;;;;;;;;;;4995951;28;1100;-73
2022/12/05 02:43:46;;;;;;;;;;;;;;;;;;5014070;28;1296;-73
2022/12/05 02:46:14;;;;;;;;;;;;;;;;;;5014249;28;759;-73
2022/12/05 02:48:41;;;;;;;;;;;;;;;;;;5014213;28;850;-74
2022/12/05 02:51:08;;;;;;;;;;;;;;;;;;5014091;28;1064;-74
2022/12/05 02:53:34;;;;;;;;;;;;;;;;;;5013269;28;988;-73
2022/12/05 02:56:00;;;;;;;;;;;;;;;;;;4996253;28;1979;-74
2022/12/05 02:58:27;;;;;;;;;;;;;;;;;;5014242;28;1056;-74
2022/12/05 03:00:56;;;;;;;;;;;;;;;;;;5013981;28;928;-74
2022/12/05 03:03:22;;;;;;;;;;;;;;;;;;5014371;28;1242;-73
2022/12/05 03:05:51;;;;;;;;;;;;;;;;;;4996177;28;1397;-74
2022/12/05 03:08:19;;;;;;;;;;;;;;;;;;5013781;28;909;-73
2022/12/05 03:10:45;;;;;;;;;;;;;;;;;;5013846;28;1119;-75
2022/12/05 03:13:12;;;;;;;;;;;;;;;;;;5012918;28;1064;-75
2022/12/05 03:15:39;;;;;;;;;;;;;;;;;;5013807;28;1973;-74
2022/12/05 03:18:06;;;;;;;;;;;;;;;;;;5013503;28;1052;-75
2022/12/05 03:20:33;;;;;;;;;;;;;;;;;;5013664;28;1056;-74
2022/12/05 03:23:01;;;;;;;;;;;;;;;;;;5012637;28;748;-73
2022/12/05 03:25:30;;;;;;;;;;;;;;;;;;5013117;28;1424;-74
2022/12/05 03:27:57;;;;;;;;;;;;;;;;;;4995957;28;1232;-74
2022/12/05 03:30:23;;;;;;;;;;;;;;;;;;5013554;28;770;-73
2022/12/05 03:32:51;;;;;;;;;;;;;;;;;;5012704;28;843;-74
2022/12/05 03:35:18;;;;;;;;;;;;;;;;;;5013223;28;1315;-73
2022/12/05 03:37:45;;;;;;;;;;;;;;;;;;4995795;28;1930;-73
2022/12/05 03:40:15;;;;;;;;;;;;;;;;;;4995723;28;1193;-74
2022/12/05 03:42:42;;;;;;;;;;;;;;;;;;5012686;28;1107;-74
2022/12/05 03:45:10;;;;;;;;;;;;;;;;;;5031158;22;3622;-81
2022/12/05 03:47:39;;;;;;;;;;;;;;;;;;5058787;28;1824;-82
2022/12/05 03:50:06;;;;;;;;;;;;;;;;;;5076734;28;1244;-83
2022/12/05 03:52:33;;;;;;;;;;;;;;;;;;5076878;28;1388;-82
2022/12/05 03:54:59;;;;;;;;;;;;;;;;;;5076938;28;1407;-82
2022/12/05 03:57:27;;;;;;;;;;;;;;;;;;5076722;28;1886;-82
2022/12/05 03:59:54;;;;;;;;;;;;;;;;;;5076600;28;1166;-82
2022/12/05 04:02:22;;;;;;;;;;;;;;;;;;5075842;28;1258;-82
2022/12/05 04:04:48;;;;;;;;;;;;;;;;;;5076836;28;1419;-82
2022/12/05 04:07:15;;;;;;;;;;;;;;;;;;5078459;28;798;-82
2022/12/05 04:09:43;;;;;;;;;;;;;;;;;;5077329;28;1143;-82
2022/12/05 04:12:10;;;;;;;;;;;;;;;;;;5077447;28;1107;-82
2022/12/05 04:14:40;;;;;;;;;;;;;;;;;;5077054;28;1179;-82
2022/12/05 04:17:08;;;;;;;;;;;;;;;;;;5077865;28;1922;-82
2022/12/05 04:22:16;;;;;;;;;;;;;;;;;;5076853;28;1004;-82
2022/12/05 04:27:28;;;;;;;;;;;;;;;;;;5059783;28;1299;-83
2022/12/05 04:29:57;;;;;;;;;;;;;;;;;;5042187;28;2034;-83
2022/12/05 04:32:23;;;;;;;;;;;;;;;;;;5069183;28;1971;-83
2022/12/05 04:34:50;;;;;;;;;;;;;;;;;;5060102;28;1329;-83
2022/12/05 04:37:18;;;;;;;;;;;;;;;;;;5058823;28;1977;-83
2022/12/05 04:39:45;;;;;;;;;;;;;;;;;;5060031;28;1119;-83
2022/12/05 04:42:12;;;;;;;;;;;;;;;;;;5063183;28;2012;-82
2022/12/05 04:44:40;;;;;;;;;;;;;;;;;;5076842;28;1148;-80
2022/12/05 04:47:08;;;;;;;;;;;;;;;;;;5061840;28;1469;-81
2022/12/05 04:49:35;;;;;;;;;;;;;;;;;;5075534;28;1342;-79
2022/12/05 04:52:02;;;;;;;;;;;;;;;;;;5074715;28;1350;-79
2022/12/05 04:54:29;;;;;;;;;;;;;;;;;;5070489;28;1601;-80
2022/12/05 04:56:57;;;;;;;;;;;;;;;;;;5065525;28;1934;-79
2022/12/05 04:59:23;;;;;;;;;;;;;;;;;;5073982;28;1403;-80
2022/12/05 05:01:50;;;;;;;;;;;;;;;;;;5075250;28;1553;-79
2022/12/05 05:04:19;;;;;;;;;;;;;;;;;;5074462;28;1162;-80
2022/12/05 05:06:45;;;;;;;;;;;;;;;;;;5074608;28;1377;-79
2022/12/05 05:09:11;;;;;;;;;;;;;;;;;;5073886;28;1127;-79
2022/12/05 05:11:37;;;;;;;;;;;;;;;;;;5072024;28;1430;-79
2022/12/05 05:14:04;;;;;;;;;;;;;;;;;;5066476;28;1323;-78
2022/12/05 05:16:32;;;;;;;;;;;;;;;;;;5062693;28;1980;-79
2022/12/05 05:18:59;;;;;;;;;;;;;;;;;;5073776;28;1138;-77
2022/12/05 05:21:27;;;;;;;;;;;;;;;;;;5056495;28;1139;-81
2022/12/05 05:23:53;;;;;;;;;;;;;;;;;;5050747;28;2113;-79
2022/12/05 05:26:19;;;;;;;;;;;;;;;;;;5051283;28;1718;-80
2022/12/05 05:28:46;;;;;;;;;;;;;;;;;;5046621;28;1700;-80
2022/12/05 05:31:12;;;;;;;;;;;;;;;;;;5070694;28;1439;-78
2022/12/05 05:33:38;;;;;;;;;;;;;;;;;;5072953;28;1157;-78
2022/12/05 05:36:05;;;;;;;;;;;;;;;;;;5065010;28;2034;-79
2022/12/05 05:38:32;;;;;;;;;;;;;;;;;;5053581;28;1933;-80
2022/12/05 05:40:59;;;;;;;;;;;;;;;;;;5074158;28;1450;-79
2022/12/05 05:43:25;;;;;;;;;;;;;;;;;;5072861;28;723;-79
2022/12/05 05:45:51;;;;;;;;;;;;;;;;;;5065083;28;1856;-80
2022/12/05 05:48:17;;;;;;;;;;;;;;;;;;5049190;28;1812;-80
2022/12/05 05:50:43;;;;;;;;;;;;;;;;;;5052590;28;1805;-80
2022/12/05 05:53:10;;;;;;;;;;;;;;;;;;5068225;28;1847;-80
2022/12/05 05:55:40;;;;;;;;;;;;;;;;;;5073493;28;1994;-80
2022/12/05 05:58:06;;;;;;;;;;;;;;;;;;5074128;28;1914;-81
2022/12/05 06:00:32;;;;;;;;;;;;;;;;;;5053410;28;1836;-80
2022/12/05 06:02:59;;;;;;;;;;;;;;;;;;5048162;28;1867;-77
2022/12/05 06:05:25;;;;;;;;;;;;;;;;;;5055711;28;2105;-80
2022/12/05 06:07:52;;;;;;;;;;;;;;;;;;5065515;28;2085;-78
2022/12/05 06:10:18;;;;;;;;;;;;;;;;;;5057387;28;1860;-80
2022/12/05 06:12:46;;;;;;;;;;;;;;;;;;5048233;28;2090;-79
2022/12/05 06:15:12;;;;;;;;;;;;;;;;;;5047658;28;1845;-80
2022/12/05 06:17:38;;;;;;;;;;;;;;;;;;5051689;28;2083;-80
2022/12/05 06:20:05;;;;;;;;;;;;;;;;;;5073541;28;1862;-79
2022/12/05 06:22:31;;;;;;;;;;;;;;;;;;5076040;28;1132;-79
2022/12/05 06:24:57;;;;;;;;;;;;;;;;;;5076823;28;1426;-80
2022/12/05 06:27:24;;;;;;;;;;;;;;;;;;5077019;28;1182;-79
2022/12/05 06:29:51;;;;;;;;;;;;;;;;;;5075334;28;1130;-79
2022/12/05 06:32:18;;;;;;;;;;;;;;;;;;5039208;28;1919;-79
2022/12/05 06:34:44;;;;;;;;;;;;;;;;;;5046340;28;2024;-80
2022/12/05 06:37:10;;;;;;;;;;;;;;;;;;5058136;28;1975;-79
2022/12/05 06:39:37;;;;;;;;;;;;;;;;;;5056752;28;1909;-79
2022/12/05 06:42:04;;;;;;;;;;;;;;;;;;5063911;28;1122;-80
2022/12/05 06:44:30;;;;;;;;;;;;;;;;;;5066141;28;1298;-79
2022/12/05 06:46:57;;;;;;;;;;;;;;;;;;5059343;28;1527;-80
2022/12/05 06:49:25;;;;;;;;;;;;;;;;;;5059207;28;1107;-80
2022/12/05 06:51:51;;;;;;;;;;;;;;;;;;5054731;28;937;-79
2022/12/05 06:54:18;;;;;;;;;;;;;;;;;;5055777;28;793;-80
2022/12/05 06:56:44;;;;;;;;;;;;;;;;;;5055723;28;1971;-80
2022/12/05 06:59:10;;;;;;;;;;;;;;;;;;5048717;28;1277;-80
2022/12/05 07:01:39;;;;;;;;;;;;;;;;;;5078709;28;1550;-80
2022/12/05 07:04:08;;;;;;;;;;;;;;;;;;5044178;28;1206;-80
2022/12/05 07:06:34;;;;;;;;;;;;;;;;;;5041789;28;1431;-79
2022/12/05 07:09:01;;;;;;;;;;;;;;;;;;5039697;28;1357;-80
2022/12/05 07:11:27;;;;;;;;;;;;;;;;;;5057391;28;1124;-79
2022/12/05 07:13:53;;;;;;;;;;;;;;;;;;5040156;28;1101;-79
2022/12/05 07:16:19;;;;;;;;;;;;;;;;;;5055839;28;1316;-80
2022/12/05 07:18:46;;;;;;;;;;;;;;;;;;5055171;28;1985;-80
2022/12/05 07:21:14;;;;;;;;;;;;;;;;;;5055151;28;1076;-77
2022/12/05 07:23:40;;;;;;;;;;;;;;;;;;5036801;28;1329;-78
2022/12/05 07:26:06;;;;;;;;;;;;;;;;;;5053900;28;1400;-79
2022/12/05 07:28:33;;;;;;;;;;;;;;;;;;5055733;28;1101;-80
2022/12/05 07:31:00;;;;;;;;;;;;;;;;;;5063529;28;1769;-79
2022/12/05 07:33:26;;;;;;;;;;;;;;;;;;5073420;28;1312;-79
2022/12/05 07:35:53;;;;;;;;;;;;;;;;;;5058398;28;1507;-79
2022/12/05 07:38:20;;;;;;;;;;;;;;;;;;5063149;28;1976;-80
2022/12/05 07:40:46;;;;;;;;;;;;;;;;;;5062833;28;1408;-80
2022/12/05 07:43:12;;;;;;;;;;;;;;;;;;5073274;28;929;-79
2022/12/05 07:45:39;;;;;;;;;;;;;;;;;;5075748;28;1343;-80
2022/12/05 07:48:05;;;;;;;;;;;;;;;;;;5077956;28;1055;-80
2022/12/05 07:50:31;;;;;;;;;;;;;;;;;;5075903;28;1257;-80
2022/12/05 07:52:57;;;;;;;;;;;;;;;;;;5069649;28;1221;-80
2022/12/05 07:55:25;;;;;;;;;;;;;;;;;;5054590;28;1443;-79
2022/12/05 07:57:51;;;;;;;;;;;;;;;;;;5054609;28;1914;-79
2022/12/05 08:00:18;;;;;;;;;;;;;;;;;;5054893;28;1043;-80
2022/12/05 08:02:44;;;;;;;;;;;;;;;;;;5054785;28;1159;-79
2022/12/05 08:05:10;;;;;;;;;;;;;;;;;;5036591;28;1350;-78
2022/12/05 08:07:36;;;;;;;;;;;;;;;;;;5035686;28;1131;-79
2022/12/05 08:10:03;;;;;;;;;;;;;;;;;;5053807;28;1052;-80
2022/12/05 08:12:31;;;;;;;;;;;;;;;;;;5033944;28;1286;-79
2022/12/05 08:14:57;;;;;;;;;;;;;;;;;;5035769;28;1362;-78
2022/12/05 08:17:23;;;;;;;;;;;;;;;;;;5053394;28;1914;-79
2022/12/05 08:19:49;;;;;;;;;;;;;;;;;;5035574;28;1692;-78
2022/12/05 08:22:15;;;;;;;;;;;;;;;;;;5053273;28;1051;-78
2022/12/05 08:24:42;;;;;;;;;;;;;;;;;;5053348;28;1055;-79
2022/12/05 08:27:08;;;;;;;;;;;;;;;;;;5037324;28;1318;-79
2022/12/05 08:29:35;;;;;;;;;;;;;;;;;;5037692;28;1101;-79
2022/12/05 08:32:02;;;;;;;;;;;;;;;;;;5055276;28;766;-79
2022/12/05 08:34:28;;;;;;;;;;;;;;;;;;5037470;28;1131;-79
2022/12/05 08:36:55;;;;;;;;;;;;;;;;;;5035273;28;1965;-78
2022/12/05 08:39:21;;;;;;;;;;;;;;;;;;5056061;28;1739;-78
2022/12/05 08:41:47;;;;;;;;;;;;;;;;;;5070981;28;1098;-79
2022/12/05 08:44:15;;;;;;;;;;;;;;;;;;5071987;28;1486;-78
2022/12/05 08:46:43;;;;;;;;;;;;;;;;;;5071419;28;1393;-79
2022/12/05 08:49:10;;;;;;;;;;;;;;;;;;5045929;28;1241;-78
2022/12/05 08:51:36;;;;;;;;;;;;;;;;;;5050903;28;778;-78
2022/12/05 08:54:02;;;;;;;;;;;;;;;;;;5051040;28;1075;-78
2022/12/05 08:56:28;;;;;;;;;;;;;;;;;;5068081;28;1498;-78
2022/12/05 08:58:55;;;;;;;;;;;;;;;;;;5071638;28;1914;-79
2022/12/05 09:01:21;;;;;;;;;;;;;;;;;;5070180;28;983;-78
2022/12/05 09:03:49;;;;;;;;;;;;;;;;;;5053105;28;1286;-78
2022/12/05 09:06:15;;;;;;;;;;;;;;;;;;5070993;28;1316;-78
2022/12/05 09:08:42;;;;;;;;;;;;;;;;;;5071130;28;1060;-77
2022/12/05 09:11:08;;;;;;;;;;;;;;;;;;5071231;28;1056;-79
2022/12/05 09:13:35;;;;;;;;;;;;;;;;;;5070478;28;902;-77
2022/12/05 09:16:04;;;;;;;;;;;;;;;;;;5072341;28;1317;-78
2022/12/05 09:18:31;;;;;;;;;;;;;;;;;;5070816;28;1918;-77
2022/12/05 09:20:58;;;;;;;;;;;;;;;;;;5052674;28;1356;-78
2022/12/05 09:23:24;;;;;;;;;;;;;;;;;;5068636;28;1115;-78
2022/12/05 09:25:53;;;;;;;;;;;;;;;;;;5075148;28;1317;-78
2022/12/05 09:28:19;;;;;;;;;;;;;;;;;;5075008;28;952;-77
2022/12/05 09:30:45;;;;;;;;;;;;;;;;;;5075034;28;1170;-76
2022/12/05 09:33:12;;;;;;;;;;;;;;;;;;5072782;28;1330;-77
2022/12/05 09:35:39;;;;;;;;;;;;;;;;;;5075008;28;1327;-78
2022/12/05 09:38:06;;;;;;;;;;;;;;;;;;5056748;28;1910;-78
2022/12/05 09:40:32;;;;;;;;;;;;;;;;;;5074669;28;1055;-76
2022/12/05 09:43:00;;;;;;;;;;;;;;;;;;5073925;28;1055;-78
2022/12/05 09:45:28;;;;;;;;;;;;;;;;;;5074456;28;1310;-77
2022/12/05 09:47:56;;;;;;;;;;;;;;;;;;5075835;28;1075;-78
2022/12/05 09:50:23;;;;;;;;;;;;;;;;;;5074192;28;941;-78
2022/12/05 09:52:54;;;;;;;;;;;;;;;;;;5074146;28;1091;-77
2022/12/05 09:55:22;;;;;;;;;;;;;;;;;;5074975;28;1472;-77
2022/12/05 09:57:50;;;;;;;;;;;;;;;;;;5074474;28;1917;-77
2022/12/05 10:00:16;;;;;;;;;;;;;;;;;;5072910;28;1235;-77
2022/12/05 10:02:45;;;;;;;;;;;;;;;;;;5057223;28;1424;-78
2022/12/05 10:05:11;;;;;;;;;;;;;;;;;;5054020;28;1298;-77
2022/12/05 10:07:39;;;;;;;;;;;;;;;;;;5054419;28;1047;-77
2022/12/05 10:10:12;;;;;;;;;;;;;;;;;;5054334;28;889;-78
2022/12/05 10:12:45;;;;;;;;;;;;;;;;;;5043866;28;1231;-78
2022/12/05 10:15:13;;;;;;;;;;;;;;;;;;5065288;28;1381;-78
2022/12/05 10:17:39;;;;;;;;;;;;;;;;;;5063496;28;1979;-78
2022/12/05 10:20:09;;;;;;;;;;;;;;;;;;5059129;28;1242;-78
2022/12/05 10:22:37;;;;;;;;;;;;;;;;;;5053717;28;1071;-78
2022/12/05 10:25:04;;;;;;;;;;;;;;;;;;5054235;28;1313;-78
2022/12/05 10:27:32;;;;;;;;;;;;;;;;;;5036806;28;1131;-78
2022/12/05 10:30:01;;;;;;;;;;;;;;;;;;5054142;28;1052;-78
2022/12/05 10:32:28;;;;;;;;;;;;;;;;;;5052895;28;869;-78
2022/12/05 10:34:55;;;;;;;;;;;;;;;;;;5052711;28;1418;-77
2022/12/05 10:37:21;;;;;;;;;;;;;;;;;;5053588;28;775;-77
2022/12/05 10:39:48;;;;;;;;;;;;;;;;;;5054229;28;1918;-77
2022/12/05 10:42:15;;;;;;;;;;;;;;;;;;5052633;28;948;-78
2022/12/05 10:44:41;;;;;;;;;;;;;;;;;;5053581;28;1103;-78
2022/12/05 10:47:09;;;;;;;;;;;;;;;;;;5053767;28;1434;-77
2022/12/05 10:49:35;;;;;;;;;;;;;;;;;;5053879;28;965;-78
2022/12/05 10:52:01;;;;;;;;;;;;;;;;;;5053825;28;775;-79
2022/12/05 10:54:29;;;;;;;;;;;;;;;;;;5071991;28;1480;-77
2022/12/05 10:56:55;;;;;;;;;;;;;;;;;;5074147;28;1405;-78
2022/12/05 10:59:22;;;;;;;;;;;;;;;;;;5074473;28;1918;-78
2022/12/05 11:01:49;;;;;;;;;;;;;;;;;;5073231;28;1114;-78
2022/12/05 11:04:24;;;;;;;;;;;;;;;;;;5065982;28;1067;-77
2022/12/05 11:06:51;;;;;;;;;;;;;;;;;;5053600;28;1405;-77
2022/12/05 11:09:18;;;;;;;;;;;;;;;;;;5053935;28;1020;-77
2022/12/05 11:11:45;;;;;;;;;;;;;;;;;;5052887;28;842;-77
2022/12/05 11:14:21;;;;;;;;;;;;;;;;;;5052964;28;1139;-77
2022/12/05 11:16:52;;;;;;;;;;;;;;;;;;5053087;28;1344;-77
2022/12/05 11:19:19;;;;;;;;;;;;;;;;;;5035006;28;1918;-77
2022/12/05 11:21:47;;;;;;;;;;;;;;;;;;5052002;28;941;-77
2022/12/05 11:24:20;;;;;;;;;;;;;;;;;;5054220;28;909;-78
2022/12/05 11:26:46;;;;;;;;;;;;;;;;;;5062467;28;1331;-77
2022/12/05 11:29:26;;;;;;;;;;;;;;;;;;5072087;28;1530;-78
2022/12/05 11:31:53;;;;;;;;;;;;;;;;;;5070301;28;1028;-77
2022/12/05 11:34:20;;;;;;;;;;;;;;;;;;5072152;28;1075;-77
2022/12/05 11:36:48;;;;;;;;;;;;;;;;;;5073015;28;1464;-77
2022/12/05 11:39:14;;;;;;;;;;;;;;;;;;5072450;28;1922;-77
2022/12/05 11:41:44;;;;;;;;;;;;;;;;;;5071573;28;1064;-77
2022/12/05 11:44:14;;;;;;;;;;;;;;;;;;5070834;28;1105;-77
2022/12/05 11:46:44;;;;;;;;;;;;;;;;;;5072086;28;1287;-77
2022/12/05 11:49:18;;;;;;;;;;;;;;;;;;5070669;28;1342;-77
2022/12/05 11:51:45;;;;;;;;;;;;;;;;;;5071477;28;1008;-77
2022/12/05 11:54:22;;;;;;;;;;;;;;;;;;5071888;28;922;-77
2022/12/05 11:56:49;;;;;;;;;;;;;;;;;;5072112;28;1409;-77
2022/12/05 11:59:19;;;;;;;;;;;;;;;;;;5072098;28;1914;-77
2022/12/05 12:01:47;;;;;;;;;;;;;;;;;;5053320;28;1148;-78
2022/12/05 12:04:19;;;;;;;;;;;;;;;;;;5072279;28;825;-78
2022/12/05 12:06:47;;;;;;;;;;;;;;;;;;5065496;28;1529;-77
2022/12/05 12:09:25;;;;;;;;;;;;;;;;;;5052154;28;838;-77
2022/12/05 12:11:52;;;;;;;;;;;;;;;;;;5051288;28;1114;-79
2022/12/05 12:14:20;;;;;;;;;;;;;;;;;;5033841;28;1211;-77
2022/12/05 12:16:48;;;;;;;;;;;;;;;;;;5051733;28;1380;-77
2022/12/05 12:19:18;;;;;;;;;;;;;;;;;;5051605;28;1914;-77
2022/12/05 12:21:51;;;;;;;;;;;;;;;;;;5033054;28;1321;-78
2022/12/05 12:24:19;;;;;;;;;;;;;;;;;;5052619;28;861;-78
2022/12/05 12:26:49;;;;;;;;;;;;;;;;;;5052100;28;1303;-78
2022/12/05 12:29:18;;;;;;;;;;;;;;;;;;5051932;28;1095;-77
2022/12/05 12:31:48;;;;;;;;;;;;;;;;;;5050700;28;821;-77
2022/12/05 12:34:19;;;;;;;;;;;;;;;;;;5051325;28;1022;-78
2022/12/05 12:36:47;;;;;;;;;;;;;;;;;;5051490;28;1406;-77
2022/12/05 12:39:16;;;;;;;;;;;;;;;;;;5054897;28;1930;-77
2022/12/05 12:41:51;;;;;;;;;;;;;;;;;;5070394;28;1276;-78
2022/12/05 12:44:23;;;;;;;;;;;;;;;;;;5072253;28;988;-78
2022/12/05 12:46:50;;;;;;;;;;;;;;;;;;5072043;28;1368;-78
2022/12/05 12:49:23;;;;;;;;;;;;;;;;;;5053526;28;1135;-77
2022/12/05 12:51:51;;;;;;;;;;;;;;;;;;5053372;28;1163;-78
2022/12/05 12:54:27;;;;;;;;;;;;;;;;;;5052020;28;893;-77
2022/12/05 12:56:57;;;;;;;;;;;;;;;;;;5051611;28;1306;-78
2022/12/05 12:59:28;;;;;;;;;;;;;;;;;;5049929;28;1971;-78
2022/12/05 13:01:57;;;;;;;;;;;;;;;;;;5049317;28;1297;-78
2022/12/05 13:04:24;;;;;;;;;;;;;;;;;;5050871;28;909;-78
2022/12/05 13:06:53;;;;;;;;;;;;;;;;;;5051200;28;1313;-77
2022/12/05 13:09:21;;;;;;;;;;;;;;;;;;5049840;28;1183;-76
2022/12/05 13:11:48;;;;;;;;;;;;;;;;;;5050181;28;1008;-76
2022/12/05 13:14:16;;;;;;;;;;;;;;;;;;5051173;28;1052;-76
2022/12/05 13:16:42;;;;;;;;;;;;;;;;;;5051260;28;1403;-77
2022/12/05 13:19:12;;;;;;;;;;;;;;;;;;5050646;28;1910;-76
2022/12/05 13:21:38;;;;;;;;;;;;;;;;;;5050311;28;779;-76
2022/12/05 13:24:05;;;;;;;;;;;;;;;;;;5050839;28;1051;-78
2022/12/05 13:26:31;;;;;;;;;;;;;;;;;;5050870;28;1322;-76
2022/12/05 13:28:58;;;;;;;;;;;;;;;;;;5049550;28;1231;-76
2022/12/05 13:31:35;;;;;;;;;;;;;;;;;;5051573;28;2028;-76
2022/12/05 13:34:02;;;;;;;;;;;;;;;;;;5061593;28;1192;-76
2022/12/05 13:42:13;;;;;;;;;;;;;;;;;;5069927;28;948;-76
2022/12/05 13:44:40;;;;;;;;;;;;;;;;;;5070409;28;1063;-77
2022/12/05 13:47:08;;;;;;;;;;;;;;;;;;5088168;28;1396;-77
2022/12/05 13:49:36;;;;;;;;;;;;;;;;;;5090898;28;786;-77
2022/12/05 13:52:06;;;;;;;;;;;;;;;;;;5089945;28;888;-74
2022/12/05 13:54:32;;;;;;;;;;;;;;;;;;5072661;28;1114;-77
2022/12/05 13:57:00;;;;;;;;;;;;;;;;;;5090813;28;1306;-76
2022/12/05 13:59:57;;;;;;;;;;;;;;;;;;5090697;28;1909;-76
2022/12/05 14:02:42;;;;;;;;;;;;;;;;;;5089506;28;770;-77
2022/12/05 14:08:01;;;;;;;;;;;;;;;;;;5109088;27;1643;-76
2022/12/05 14:10:27;;;;;;;;;;;;;;;;;;5108411;28;1244;-76
2022/12/05 14:12:53;;;;;;;;;;;;;;;;;;5106647;28;1157;-76
2022/12/05 14:15:19;;;;;;;;;;;;;;;;;;5108674;28;1305;-76
2022/12/05 14:17:45;;;;;;;;;;;;;;;;;;5094642;28;1498;-76
2022/12/05 14:20:12;;;;;;;;;;;;;;;;;;5088200;28;877;-76
2022/12/05 14:22:38;;;;;;;;;;;;;;;;;;5087574;28;920;-76
2022/12/05 14:25:04;;;;;;;;;;;;;;;;;;5097773;28;1725;-77
2022/12/05 14:27:30;;;;;;;;;;;;;;;;;;5108343;28;1913;-76
2022/12/05 14:29:56;;;;;;;;;;;;;;;;;;5108687;28;841;-76
2022/12/05 14:32:22;;;;;;;;;;;;;;;;;;5107290;28;968;-76
2022/12/05 14:34:48;;;;;;;;;;;;;;;;;;5098419;28;1074;-76
2022/12/05 14:37:14;;;;;;;;;;;;;;;;;;5088072;28;1356;-76
2022/12/05 14:39:41;;;;;;;;;;;;;;;;;;5088153;28;1055;-76
2022/12/05 14:42:07;;;;;;;;;;;;;;;;;;5087010;28;1066;-78
2022/12/05 14:44:33;;;;;;;;;;;;;;;;;;5086815;28;1283;-77
2022/12/05 14:47:01;;;;;;;;;;;;;;;;;;5090858;28;1906;-77
2022/12/05 14:49:28;;;;;;;;;;;;;;;;;;5107865;28;1201;-76
2022/12/05 14:51:54;;;;;;;;;;;;;;;;;;5107272;28;956;-77
2022/12/05 14:54:20;;;;;;;;;;;;;;;;;;5108484;28;710;-77
2022/12/05 14:56:46;;;;;;;;;;;;;;;;;;5108329;28;1434;-77
2022/12/05 14:59:12;;;;;;;;;;;;;;;;;;5108162;28;810;-77
2022/12/05 15:01:38;;;;;;;;;;;;;;;;;;5106905;28;1023;-77
2022/12/05 15:04:04;;;;;;;;;;;;;;;;;;5106742;28;1129;-78
2022/12/05 15:06:30;;;;;;;;;;;;;;;;;;5106612;28;1969;-77
2022/12/05 15:08:56;;;;;;;;;;;;;;;;;;5107230;28;1209;-77
2022/12/05 15:11:27;;;;;;;;;;;;;;;;;;5107319;28;1118;-77
2022/12/05 15:13:54;;;;;;;;;;;;;;;;;;5108405;28;947;-77
2022/12/05 15:16:20;;;;;;;;;;;;;;;;;;5107806;28;1380;-76
2022/12/05 15:18:46;;;;;;;;;;;;;;;;;;5097709;28;983;-77
2022/12/05 15:21:12;;;;;;;;;;;;;;;;;;5092555;28;1201;-76
2022/12/05 15:23:38;;;;;;;;;;;;;;;;;;5092133;28;1369;-76
2022/12/05 15:26:04;;;;;;;;;;;;;;;;;;5093809;28;1914;-77
2022/12/05 15:28:30;;;;;;;;;;;;;;;;;;5093896;28;777;-77
2022/12/05 15:30:56;;;;;;;;;;;;;;;;;;5093797;28;1083;-77
2022/12/05 15:33:23;;;;;;;;;;;;;;;;;;5092774;28;1047;-78
2022/12/05 15:35:49;;;;;;;;;;;;;;;;;;5093288;28;1302;-78
2022/12/05 15:38:15;;;;;;;;;;;;;;;;;;5093841;28;1324;-76
2022/12/05 15:40:41;;;;;;;;;;;;;;;;;;5093364;28;947;-76
2022/12/05 15:43:07;;;;;;;;;;;;;;;;;;5092569;28;1044;-77
2022/12/05 15:45:33;;;;;;;;;;;;;;;;;;5093644;28;1333;-75
2022/12/05 15:47:59;;;;;;;;;;;;;;;;;;5093643;28;1922;-77
2022/12/05 15:50:25;;;;;;;;;;;;;;;;;;5108883;22;3502;-75
2022/12/05 15:52:52;;;;;;;;;;;;;;;;;;5044461;28;1732;-74
2022/12/05 15:55:18;;;;;;;;;;;;;;;;;;5033012;28;1067;-75
2022/12/05 15:57:44;;;;;;;;;;;;;;;;;;5032702;28;1072;-76
2022/12/05 16:00:11;;;;;;;;;;;;;;;;;;5033057;28;919;-77
2022/12/05 16:02:40;;;;;;;;;;;;;;;;;;5032061;28;839;-73
2022/12/05 16:05:06;;;;;;;;;;;;;;;;;;5033243;28;623;-75
2022/12/05 16:07:32;;;;;;;;;;;;;;;;;;5032656;28;1910;-74
2022/12/05 16:09:58;;;;;;;;;;;;;;;;;;5031624;28;1309;-74
2022/12/05 16:12:24;;;;;;;;;;;;;;;;;;5030762;28;1425;-74
2022/12/05 16:14:50;;;;;;;;;;;;;;;;;;5032192;28;854;-74
2022/12/05 16:17:16;;;;;;;;;;;;;;;;;;5032538;28;1304;-74
2022/12/05 16:19:43;;;;;;;;;;;;;;;;;;5020091;28;1550;-74
2022/12/05 16:22:09;;;;;;;;;;;;;;;;;;5010469;28;1432;-74
2022/12/05 16:24:35;;;;;;;;;;;;;;;;;;5012598;28;929;-74
2022/12/05 16:27:02;;;;;;;;;;;;;;;;;;5012678;28;1914;-74
2022/12/05 16:29:28;;;;;;;;;;;;;;;;;;5010692;28;1295;-75
2022/12/05 16:31:54;;;;;;;;;;;;;;;;;;5011505;28;1323;-73
2022/12/05 16:34:20;;;;;;;;;;;;;;;;;;5011254;28;1235;-74
2022/12/05 16:36:46;;;;;;;;;;;;;;;;;;5012199;28;1432;-73
2022/12/05 16:39:12;;;;;;;;;;;;;;;;;;5014967;28;1217;-74
2022/12/05 16:41:38;;;;;;;;;;;;;;;;;;5011568;28;1313;-74
2022/12/05 16:44:04;;;;;;;;;;;;;;;;;;5011128;28;1109;-74
2022/12/05 16:46:31;;;;;;;;;;;;;;;;;;5012370;28;1911;-73
2022/12/05 16:48:57;;;;;;;;;;;;;;;;;;5012287;28;1060;-74
2022/12/05 16:51:24;;;;;;;;;;;;;;;;;;5011482;28;1333;-75
2022/12/05 16:53:50;;;;;;;;;;;;;;;;;;5011988;28;799;-74
2022/12/05 16:56:16;;;;;;;;;;;;;;;;;;5010994;28;1053;-75
2022/12/05 16:58:42;;;;;;;;;;;;;;;;;;5012025;28;838;-74
2022/12/05 17:01:09;;;;;;;;;;;;;;;;;;5011346;28;1540;-76
2022/12/05 17:03:35;;;;;;;;;;;;;;;;;;5010453;28;1167;-74
2022/12/05 17:06:01;;;;;;;;;;;;;;;;;;5012608;28;1080;-73
2022/12/05 17:08:28;;;;;;;;;;;;;;;;;;5007211;28;1979;-74
2022/12/05 17:10:54;;;;;;;;;;;;;;;;;;4954932;28;1294;-76
2022/12/05 17:13:20;;;;;;;;;;;;;;;;;;4945557;28;1361;-76
2022/12/05 17:15:47;;;;;;;;;;;;;;;;;;4947949;28;1197;-75
2022/12/05 17:18:15;;;;;;;;;;;;;;;;;;4944327;28;1141;-75
2022/12/05 17:20:41;;;;;;;;;;;;;;;;;;4934176;28;1302;-76